sensor_id;sensor_type;location;lat;lon;timestamp;pressure;altitude;pressure_sealevel;temperature;humidity
65716;BME280;63484;52.054;8.518;2023-04-04T00:01:55;102061.44;;;-0.43;84.15
65716;BME280;63484;52.054;8.518;2023-04-04T00:07:01;102061.41;;;-0.51;84.40
65716;BME280;63484;52.054;8.518;2023-04-04T00:12:04;102053.69;;;-0.49;85.58
65716;BME280;63484;52.054;8.518;2023-04-04T00:17:06;102064.03;;;-0.46;85.38
65716;BME280;63484;52.054;8.518;2023-04-04T00:22:09;102058.81;;;-0.54;84.69
65716;BME280;63484;52.054;8.518;2023-04-04T00:27:13;102045.03;;;-0.54;85.74
65716;BME280;63484;52.054;8.518;2023-04-04T00:32:17;102055.38;;;-0.53;86.05
65716;BME280;63484;52.054;8.518;2023-04-04T00:37:22;102051.88;;;-0.59;85.49
65716;BME280;63484;52.054;8.518;2023-04-04T00:42:24;102045.81;;;-0.64;85.02
65716;BME280;63484;52.054;8.518;2023-04-04T00:47:29;102053.53;;;-0.69;85.82
65716;BME280;63484;52.054;8.518;2023-04-04T00:52:32;102054.41;;;-0.70;86.67
65716;BME280;63484;52.054;8.518;2023-04-04T00:57:35;102053.53;;;-0.69;87.00
65716;BME280;63484;52.054;8.518;2023-04-04T01:02:37;102046.69;;;-0.65;86.85
65716;BME280;63484;52.054;8.518;2023-04-04T01:07:40;102048.34;;;-0.72;87.05
65716;BME280;63484;52.054;8.518;2023-04-04T01:12:45;102051.69;;;-0.85;86.14
65716;BME280;63484;52.054;8.518;2023-04-04T01:17:47;102033.63;;;-0.85;86.72
65716;BME280;63484;52.054;8.518;2023-04-04T01:22:52;102036.13;;;-0.92;86.41
65716;BME280;63484;52.054;8.518;2023-04-04T01:27:57;102024.97;;;-0.93;87.60
65716;BME280;63484;52.054;8.518;2023-04-04T01:33:04;102032.72;;;-0.91;87.60
65716;BME280;63484;52.054;8.518;2023-04-04T01:38:18;102035.25;;;-0.96;87.85
65716;BME280;63484;52.054;8.518;2023-04-04T01:43:22;102030.94;;;-0.95;87.72
65716;BME280;63484;52.054;8.518;2023-04-04T01:48:25;102026.66;;;-0.95;87.63
65716;BME280;63484;52.054;8.518;2023-04-04T01:53:29;102024.97;;;-0.93;88.09
65716;BME280;63484;52.054;8.518;2023-04-04T01:58:32;102018.91;;;-0.95;87.93
65716;BME280;63484;52.054;8.518;2023-04-04T02:03:34;102021.47;;;-0.98;87.81
65716;BME280;63484;52.054;8.518;2023-04-04T02:08:36;102018.88;;;-0.99;87.96
65716;BME280;63484;52.054;8.518;2023-04-04T02:13:40;102021.44;;;-1.04;87.82
65716;BME280;63484;52.054;8.518;2023-04-04T02:18:45;102017.09;;;-1.08;87.69
65716;BME280;63484;52.054;8.518;2023-04-04T02:23:47;102017.88;;;-1.15;88.26
65716;BME280;63484;52.054;8.518;2023-04-04T02:28:50;102015.38;;;-1.10;88.52
65716;BME280;63484;52.054;8.518;2023-04-04T02:33:51;102017.03;;;-1.14;88.61
65716;BME280;63484;52.054;8.518;2023-04-04T02:38:54;102017.03;;;-1.17;88.03
65716;BME280;63484;52.054;8.518;2023-04-04T02:44:00;102011.84;;;-1.18;88.71
65716;BME280;63484;52.054;8.518;2023-04-04T02:49:02;102008.38;;;-1.22;89.36
65716;BME280;63484;52.054;8.518;2023-04-04T02:54:06;102011.75;;;-1.27;89.03
65716;BME280;63484;52.054;8.518;2023-04-04T02:59:15;102003.16;;;-1.28;89.47
65716;BME280;63484;52.054;8.518;2023-04-04T03:04:17;101998.06;;;-1.22;89.69
65716;BME280;63484;52.054;8.518;2023-04-04T03:09:19;101987.63;;;-1.34;88.90
65716;BME280;63484;52.054;8.518;2023-04-04T03:14:25;101979.88;;;-1.37;89.57
65716;BME280;63484;52.054;8.518;2023-04-04T03:19:30;101979.84;;;-1.40;89.77
65716;BME280;63484;52.054;8.518;2023-04-04T03:24:32;101979.81;;;-1.45;89.28
65716;BME280;63484;52.054;8.518;2023-04-04T03:29:35;101967.75;;;-1.46;89.88
65716;BME280;63484;52.054;8.518;2023-04-04T03:34:38;101970.25;;;-1.53;89.34
65716;BME280;63484;52.054;8.518;2023-04-04T03:39:39;101966.00;;;-1.51;89.63
65716;BME280;63484;52.054;8.518;2023-04-04T03:44:45;101969.47;;;-1.46;90.26
65716;BME280;63484;52.054;8.518;2023-04-04T03:49:53;101971.19;;;-1.45;90.08
65716;BME280;63484;52.054;8.518;2023-04-04T03:54:56;101976.28;;;-1.54;89.92
65716;BME280;63484;52.054;8.518;2023-04-04T04:00:00;101966.00;;;-1.50;90.20
65716;BME280;63484;52.054;8.518;2023-04-04T04:05:12;101969.47;;;-1.48;90.22
65716;BME280;63484;52.054;8.518;2023-04-04T04:10:14;101960.84;;;-1.51;89.56
65716;BME280;63484;52.054;8.518;2023-04-04T04:15:17;101954.78;;;-1.56;90.29
65716;BME280;63484;52.054;8.518;2023-04-04T04:20:20;101957.34;;;-1.59;90.06
65716;BME280;63484;52.054;8.518;2023-04-04T04:25:25;101949.66;;;-1.53;90.45
65716;BME280;63484;52.054;8.518;2023-04-04T04:30:45;101952.28;;;-1.47;90.67
65716;BME280;63484;52.054;8.518;2023-04-04T04:35:49;101948.78;;;-1.51;90.97
65716;BME280;63484;52.054;8.518;2023-04-04T04:40:52;101957.38;;;-1.55;90.48
65716;BME280;63484;52.054;8.518;2023-04-04T04:46:01;101960.75;;;-1.59;91.01
65716;BME280;63484;52.054;8.518;2023-04-04T04:51:03;101966.69;;;-1.69;90.93
65716;BME280;63484;52.054;8.518;2023-04-04T04:56:14;101952.06;;;-1.68;91.36
65716;BME280;63484;52.054;8.518;2023-04-04T05:01:18;101964.97;;;-1.65;91.05
65716;BME280;63484;52.054;8.518;2023-04-04T05:06:21;101969.28;;;-1.67;90.72
65716;BME280;63484;52.054;8.518;2023-04-04T05:11:24;101965.97;;;-1.54;90.32
65716;BME280;63484;52.054;8.518;2023-04-04T05:16:27;101964.41;;;-1.37;90.11
65716;BME280;63484;52.054;8.518;2023-04-04T05:21:31;101957.72;;;-1.14;89.61
65716;BME280;63484;52.054;8.518;2023-04-04T05:26:35;101961.28;;;-0.94;88.10
65716;BME280;63484;52.054;8.518;2023-04-04T05:31:39;101977.81;;;-0.68;87.27
65716;BME280;63484;52.054;8.518;2023-04-04T05:36:48;101970.34;;;-0.15;84.55
65716;BME280;63484;52.054;8.518;2023-04-04T05:41:52;101979.09;;;0.40;82.44
65716;BME280;63484;52.054;8.518;2023-04-04T05:46:58;101978.28;;;0.83;80.98
65716;BME280;63484;52.054;8.518;2023-04-04T05:52:01;101983.44;;;1.05;78.94
65716;BME280;63484;52.054;8.518;2023-04-04T05:57:05;101986.06;;;1.08;79.24
65716;BME280;63484;52.054;8.518;2023-04-04T06:02:22;101999.75;;;1.63;76.42
65716;BME280;63484;52.054;8.518;2023-04-04T06:07:31;102000.50;;;1.95;75.25
65716;BME280;63484;52.054;8.518;2023-04-04T06:12:35;102012.41;;;2.37;73.63
65716;BME280;63484;52.054;8.518;2023-04-04T06:17:43;102006.06;;;2.81;70.89
65716;BME280;63484;52.054;8.518;2023-04-04T06:22:45;102004.00;;;3.20;69.94
65716;BME280;63484;52.054;8.518;2023-04-04T06:27:47;102005.34;;;3.60;68.02
65716;BME280;63484;52.054;8.518;2023-04-04T06:32:53;102019.13;;;4.39;64.35
65716;BME280;63484;52.054;8.518;2023-04-04T06:37:58;102020.31;;;4.76;62.59
65716;BME280;63484;52.054;8.518;2023-04-04T06:43:02;102032.06;;;5.99;59.32
65716;BME280;63484;52.054;8.518;2023-04-04T06:48:14;102031.94;;;6.46;56.12
65716;BME280;63484;52.054;8.518;2023-04-04T06:53:16;102025.00;;;6.45;56.50
65716;BME280;63484;52.054;8.518;2023-04-04T06:58:20;102029.09;;;6.93;55.41
65716;BME280;63484;52.054;8.518;2023-04-04T07:03:23;102013.75;;;8.40;50.73
65716;BME280;63484;52.054;8.518;2023-04-04T07:08:25;102032.66;;;10.06;44.39
65716;BME280;63484;52.054;8.518;2023-04-04T07:13:26;102034.69;;;12.12;38.90
65716;BME280;63484;52.054;8.518;2023-04-04T07:18:30;102045.06;;;14.28;35.81
65716;BME280;63484;52.054;8.518;2023-04-04T07:23:31;102036.06;;;14.63;33.09
65716;BME280;63484;52.054;8.518;2023-04-04T07:28:33;102026.13;;;16.71;30.32
65716;BME280;63484;52.054;8.518;2023-04-04T07:33:36;102023.25;;;17.53;28.91
65716;BME280;63484;52.054;8.518;2023-04-04T07:38:38;102019.41;;;18.08;26.63
65716;BME280;63484;52.054;8.518;2023-04-04T07:43:39;102008.91;;;16.35;29.27
65716;BME280;63484;52.054;8.518;2023-04-04T07:48:43;102010.78;;;16.62;28.28
65716;BME280;63484;52.054;8.518;2023-04-04T07:53:47;101999.59;;;16.28;29.12
65716;BME280;63484;52.054;8.518;2023-04-04T07:58:48;102000.63;;;17.34;28.08
65716;BME280;63484;52.054;8.518;2023-04-04T08:03:51;102006.97;;;17.58;26.97
65716;BME280;63484;52.054;8.518;2023-04-04T08:08:53;101996.53;;;16.89;27.74
65716;BME280;63484;52.054;8.518;2023-04-04T08:13:55;102004.84;;;18.13;26.63
65716;BME280;63484;52.054;8.518;2023-04-04T08:18:58;101998.81;;;16.95;27.69
65716;BME280;63484;52.054;8.518;2023-04-04T08:24:00;101994.59;;;16.79;27.07
65716;BME280;63484;52.054;8.518;2023-04-04T08:29:02;101998.78;;;15.42;27.40
65716;BME280;63484;52.054;8.518;2023-04-04T08:34:05;101996.75;;;14.07;27.89
65716;BME280;63484;52.054;8.518;2023-04-04T08:39:10;101991.97;;;11.04;33.16
65716;BME280;63484;52.054;8.518;2023-04-04T08:44:15;101989.72;;;8.83;38.20
65716;BME280;63484;52.054;8.518;2023-04-04T08:49:19;101978.84;;;8.10;38.58
65716;BME280;63484;52.054;8.518;2023-04-04T08:54:24;101979.47;;;7.89;38.36
65716;BME280;63484;52.054;8.518;2023-04-04T08:59:27;101992.06;;;7.75;39.85
65716;BME280;63484;52.054;8.518;2023-04-04T09:04:30;101992.16;;;7.72;40.19
65716;BME280;63484;52.054;8.518;2023-04-04T09:09:32;101987.25;;;7.28;42.27
65716;BME280;63484;52.054;8.518;2023-04-04T09:14:35;101987.41;;;7.54;41.91
65716;BME280;63484;52.054;8.518;2023-04-04T09:19:40;101982.47;;;7.10;42.99
65716;BME280;63484;52.054;8.518;2023-04-04T09:24:42;101984.72;;;7.57;43.08
65716;BME280;63484;52.054;8.518;2023-04-04T09:29:44;101974.84;;;7.68;42.61
65716;BME280;63484;52.054;8.518;2023-04-04T09:34:48;101967.84;;;7.67;42.21
65716;BME280;63484;52.054;8.518;2023-04-04T09:39:52;101970.13;;;7.15;42.26
65716;BME280;63484;52.054;8.518;2023-04-04T09:44:54;101973.63;;;6.82;42.77
65716;BME280;63484;52.054;8.518;2023-04-04T09:49:58;101970.13;;;7.49;42.21
65716;BME280;63484;52.054;8.518;2023-04-04T09:55:01;101960.50;;;6.83;43.18
65716;BME280;63484;52.054;8.518;2023-04-04T10:00:05;101966.41;;;6.91;42.65
65716;BME280;63484;52.054;8.518;2023-04-04T10:05:12;101962.53;;;7.06;43.13
65716;BME280;63484;52.054;8.518;2023-04-04T10:10:15;101957.94;;;7.16;42.32
65716;BME280;63484;52.054;8.518;2023-04-04T10:15:16;101947.31;;;6.88;43.96
65716;BME280;63484;52.054;8.518;2023-04-04T10:20:20;101944.59;;;6.57;44.57
65716;BME280;63484;52.054;8.518;2023-04-04T10:25:23;101947.47;;;6.82;43.56
65716;BME280;63484;52.054;8.518;2023-04-04T10:30:24;101938.34;;;6.98;43.68
65716;BME280;63484;52.054;8.518;2023-04-04T10:35:27;101935.94;;;6.89;42.55
65716;BME280;63484;52.054;8.518;2023-04-04T10:40:34;101921.41;;;7.13;43.70
65716;BME280;63484;52.054;8.518;2023-04-04T10:45:38;101911.13;;;7.07;42.16
65716;BME280;63484;52.054;8.518;2023-04-04T10:50:45;101912.69;;;7.44;43.33
65716;BME280;63484;52.054;8.518;2023-04-04T10:55:48;101921.59;;;7.07;42.26
65716;BME280;63484;52.054;8.518;2023-04-04T11:00:52;101911.72;;;7.16;41.80
65716;BME280;63484;52.054;8.518;2023-04-04T11:05:57;101905.31;;;6.94;42.72
65716;BME280;63484;52.054;8.518;2023-04-04T11:11:02;101890.22;;;7.37;42.83
65716;BME280;63484;52.054;8.518;2023-04-04T11:16:05;101892.66;;;7.43;42.31
65716;BME280;63484;52.054;8.518;2023-04-04T11:21:15;101892.75;;;7.40;40.47
65716;BME280;63484;52.054;8.518;2023-04-04T11:26:18;101888.38;;;7.41;41.51
65716;BME280;63484;52.054;8.518;2023-04-04T11:31:38;101877.41;;;7.57;41.02
65716;BME280;63484;52.054;8.518;2023-04-04T11:36:53;101867.50;;;7.97;42.14
65716;BME280;63484;52.054;8.518;2023-04-04T11:42:00;101864.94;;;8.23;39.91
65716;BME280;63484;52.054;8.518;2023-04-04T11:47:08;101860.72;;;8.18;40.00
65716;BME280;63484;52.054;8.518;2023-04-04T11:52:13;101841.16;;;8.02;39.37
65716;BME280;63484;52.054;8.518;2023-04-04T11:57:19;101864.84;;;7.70;39.91
65716;BME280;63484;52.054;8.518;2023-04-04T12:02:24;101850.81;;;7.72;40.48
65716;BME280;63484;52.054;8.518;2023-04-04T12:07:32;101847.13;;;7.79;40.23
65716;BME280;63484;52.054;8.518;2023-04-04T12:12:36;101842.06;;;8.01;39.51
65716;BME280;63484;52.054;8.518;2023-04-04T12:17:38;101833.78;;;8.14;39.07
65716;BME280;63484;52.054;8.518;2023-04-04T12:22:41;101835.31;;;8.21;39.19
65716;BME280;63484;52.054;8.518;2023-04-04T12:27:44;101832.25;;;8.61;38.16
65716;BME280;63484;52.054;8.518;2023-04-04T12:32:46;101822.56;;;8.37;38.11
65716;BME280;63484;52.054;8.518;2023-04-04T12:38:00;101818.91;;;8.43;38.54
65716;BME280;63484;52.054;8.518;2023-04-04T12:43:04;101806.84;;;8.37;37.83
65716;BME280;63484;52.054;8.518;2023-04-04T12:48:08;101808.41;;;8.16;39.15
65716;BME280;63484;52.054;8.518;2023-04-04T12:53:11;101793.91;;;8.32;39.48
65716;BME280;63484;52.054;8.518;2023-04-04T12:58:14;101791.69;;;8.47;40.05
65716;BME280;63484;52.054;8.518;2023-04-04T13:03:17;101778.38;;;8.53;40.73
65716;BME280;63484;52.054;8.518;2023-04-04T13:08:23;101774.50;;;8.63;38.47
65716;BME280;63484;52.054;8.518;2023-04-04T13:13:35;101766.66;;;8.63;37.55
65716;BME280;63484;52.054;8.518;2023-04-04T13:18:39;101763.78;;;8.70;36.66
65716;BME280;63484;52.054;8.518;2023-04-04T13:23:43;101745.44;;;8.70;37.33
65716;BME280;63484;52.054;8.518;2023-04-04T13:28:45;101741.13;;;8.92;37.44
65716;BME280;63484;52.054;8.518;2023-04-04T13:33:47;101736.00;;;8.65;37.61
65716;BME280;63484;52.054;8.518;2023-04-04T13:38:50;101731.63;;;8.65;35.94
65716;BME280;63484;52.054;8.518;2023-04-04T13:43:54;101720.91;;;8.71;35.88
65716;BME280;63484;52.054;8.518;2023-04-04T13:48:56;101713.94;;;8.95;35.86
65716;BME280;63484;52.054;8.518;2023-04-04T13:53:59;101715.97;;;9.10;35.14
65716;BME280;63484;52.054;8.518;2023-04-04T13:59:00;101700.13;;;8.67;34.98
65716;BME280;63484;52.054;8.518;2023-04-04T14:04:02;101701.00;;;8.66;36.15
65716;BME280;63484;52.054;8.518;2023-04-04T14:09:05;101699.75;;;8.53;35.88
65716;BME280;63484;52.054;8.518;2023-04-04T14:14:07;101696.75;;;8.63;34.23
65716;BME280;63484;52.054;8.518;2023-04-04T14:19:09;101691.06;;;8.75;34.45
65716;BME280;63484;52.054;8.518;2023-04-04T14:24:14;101692.38;;;8.64;35.02
65716;BME280;63484;52.054;8.518;2023-04-04T14:29:16;101689.81;;;8.62;35.66
65716;BME280;63484;52.054;8.518;2023-04-04T14:34:17;101665.69;;;8.53;36.43
65716;BME280;63484;52.054;8.518;2023-04-04T14:39:20;101662.03;;;8.80;36.54
65716;BME280;63484;52.054;8.518;2023-04-04T14:44:22;101655.78;;;8.61;35.71
65716;BME280;63484;52.054;8.518;2023-04-04T14:49:26;101649.06;;;8.77;35.36
65716;BME280;63484;52.054;8.518;2023-04-04T14:54:29;101648.94;;;8.80;35.22
65716;BME280;63484;52.054;8.518;2023-04-04T14:59:33;101648.75;;;8.61;35.94
65716;BME280;63484;52.054;8.518;2023-04-04T15:04:37;101633.16;;;8.58;34.45
65716;BME280;63484;52.054;8.518;2023-04-04T15:09:40;101630.91;;;8.71;34.72
65716;BME280;63484;52.054;8.518;2023-04-04T15:14:42;101629.22;;;8.70;34.57
65716;BME280;63484;52.054;8.518;2023-04-04T15:19:43;101632.84;;;8.66;34.21
65716;BME280;63484;52.054;8.518;2023-04-04T15:24:46;101629.41;;;8.65;34.08
65716;BME280;63484;52.054;8.518;2023-04-04T15:29:48;101628.84;;;8.79;35.80
65716;BME280;63484;52.054;8.518;2023-04-04T15:34:50;101625.47;;;8.77;35.72
65716;BME280;63484;52.054;8.518;2023-04-04T15:39:53;101625.78;;;8.68;37.21
65716;BME280;63484;52.054;8.518;2023-04-04T15:44:57;101625.66;;;8.71;37.40
65716;BME280;63484;52.054;8.518;2023-04-04T15:49:59;101622.41;;;8.87;36.67
65716;BME280;63484;52.054;8.518;2023-04-04T15:55:02;101626.09;;;8.83;36.27
65716;BME280;63484;52.054;8.518;2023-04-04T16:00:07;101621.75;;;8.59;35.59
65716;BME280;63484;52.054;8.518;2023-04-04T16:05:12;101620.22;;;8.77;35.91
65716;BME280;63484;52.054;8.518;2023-04-04T16:10:17;101613.75;;;8.85;34.76
65716;BME280;63484;52.054;8.518;2023-04-04T16:15:19;101614.97;;;8.77;34.88
65716;BME280;63484;52.054;8.518;2023-04-04T16:20:21;101608.59;;;8.61;35.84
65716;BME280;63484;52.054;8.518;2023-04-04T16:25:24;101601.47;;;8.41;35.71
65716;BME280;63484;52.054;8.518;2023-04-04T16:30:26;101602.50;;;8.60;37.06
65716;BME280;63484;52.054;8.518;2023-04-04T16:35:28;101600.91;;;8.33;36.10
65716;BME280;63484;52.054;8.518;2023-04-04T16:40:33;101598.03;;;8.14;37.36
65716;BME280;63484;52.054;8.518;2023-04-04T16:45:35;101591.88;;;8.15;37.38
65716;BME280;63484;52.054;8.518;2023-04-04T16:50:37;101590.34;;;8.10;38.55
65716;BME280;63484;52.054;8.518;2023-04-04T16:55:40;101591.09;;;8.13;39.53
65716;BME280;63484;52.054;8.518;2023-04-04T17:00:42;101583.25;;;8.13;39.88
65716;BME280;63484;52.054;8.518;2023-04-04T17:05:43;101580.94;;;8.04;40.66
65716;BME280;63484;52.054;8.518;2023-04-04T17:10:47;101578.91;;;8.12;39.61
65716;BME280;63484;52.054;8.518;2023-04-04T17:15:48;101576.75;;;8.00;39.53
65716;BME280;63484;52.054;8.518;2023-04-04T17:20:51;101566.56;;;7.91;40.42
65716;BME280;63484;52.054;8.518;2023-04-04T17:25:54;101570.06;;;7.92;40.28
65716;BME280;63484;52.054;8.518;2023-04-04T17:30:57;101568.00;;;7.75;41.51
65716;BME280;63484;52.054;8.518;2023-04-04T17:35:59;101572.06;;;7.59;41.50
65716;BME280;63484;52.054;8.518;2023-04-04T17:41:02;101573.38;;;7.46;41.75
65716;BME280;63484;52.054;8.518;2023-04-04T17:46:04;101562.31;;;7.38;42.29
65716;BME280;63484;52.054;8.518;2023-04-04T17:51:06;101575.59;;;7.32;42.35
65716;BME280;63484;52.054;8.518;2023-04-04T17:56:09;101577.84;;;7.17;43.24
65716;BME280;63484;52.054;8.518;2023-04-04T18:01:11;101577.38;;;7.04;44.01
65716;BME280;63484;52.054;8.518;2023-04-04T18:06:13;101575.91;;;6.97;44.62
65716;BME280;63484;52.054;8.518;2023-04-04T18:11:16;101578.16;;;6.80;45.06
65716;BME280;63484;52.054;8.518;2023-04-04T18:16:18;101573.22;;;6.71;45.23
65716;BME280;63484;52.054;8.518;2023-04-04T18:21:20;101570.91;;;6.60;46.12
65716;BME280;63484;52.054;8.518;2023-04-04T18:26:23;101577.19;;;6.55;45.80
65716;BME280;63484;52.054;8.518;2023-04-04T18:31:24;101575.69;;;6.46;46.37
65716;BME280;63484;52.054;8.518;2023-04-04T18:36:26;101579.38;;;6.39;47.02
65716;BME280;63484;52.054;8.518;2023-04-04T18:41:29;101576.84;;;6.36;47.43
65716;BME280;63484;52.054;8.518;2023-04-04T18:46:33;101579.75;;;6.26;47.81
65716;BME280;63484;52.054;8.518;2023-04-04T18:51:35;101584.28;;;6.19;48.33
65716;BME280;63484;52.054;8.518;2023-04-04T18:56:38;101587.91;;;6.15;48.83
65716;BME280;63484;52.054;8.518;2023-04-04T19:01:40;101581.97;;;6.10;50.07
65716;BME280;63484;52.054;8.518;2023-04-04T19:06:43;101582.03;;;6.07;49.67
65716;BME280;63484;52.054;8.518;2023-04-04T19:11:47;101584.88;;;5.98;50.15
65716;BME280;63484;52.054;8.518;2023-04-04T19:16:49;101590.50;;;5.85;51.36
65716;BME280;63484;52.054;8.518;2023-04-04T19:21:53;101589.72;;;5.80;51.19
65716;BME280;63484;52.054;8.518;2023-04-04T19:26:56;101589.06;;;5.72;50.51
65716;BME280;63484;52.054;8.518;2023-04-04T19:31:58;101579.53;;;5.71;50.61
65716;BME280;63484;52.054;8.518;2023-04-04T19:37:09;101583.03;;;5.69;49.46
65716;BME280;63484;52.054;8.518;2023-04-04T19:42:13;101589.25;;;5.65;50.40
65716;BME280;63484;52.054;8.518;2023-04-04T19:47:16;101586.53;;;5.68;49.46
65716;BME280;63484;52.054;8.518;2023-04-04T19:52:21;101583.16;;;5.65;49.76
65716;BME280;63484;52.054;8.518;2023-04-04T19:57:24;101586.63;;;5.65;49.19
65716;BME280;63484;52.054;8.518;2023-04-04T20:02:49;101585.84;;;5.62;49.02
65716;BME280;63484;52.054;8.518;2023-04-04T20:07:53;101593.66;;;5.62;49.13
65716;BME280;63484;52.054;8.518;2023-04-04T20:12:58;101595.41;;;5.61;49.49
65716;BME280;63484;52.054;8.518;2023-04-04T20:18:04;101599.06;;;5.54;49.78
65716;BME280;63484;52.054;8.518;2023-04-04T20:23:07;101595.56;;;5.55;49.64
65716;BME280;63484;52.054;8.518;2023-04-04T20:28:19;101588.72;;;5.51;50.15
65716;BME280;63484;52.054;8.518;2023-04-04T20:33:29;101591.16;;;5.59;49.00
65716;BME280;63484;52.054;8.518;2023-04-04T20:38:31;101586.09;;;5.51;49.46
65716;BME280;63484;52.054;8.518;2023-04-04T20:43:34;101582.78;;;5.45;50.28
65716;BME280;63484;52.054;8.518;2023-04-04T20:48:38;101574.19;;;5.43;50.24
65716;BME280;63484;52.054;8.518;2023-04-04T20:53:40;101583.03;;;5.36;49.99
65716;BME280;63484;52.054;8.518;2023-04-04T20:58:43;101576.16;;;5.32;50.19
65716;BME280;63484;52.054;8.518;2023-04-04T21:03:45;101585.75;;;5.31;49.55
65716;BME280;63484;52.054;8.518;2023-04-04T21:08:49;101585.84;;;5.28;50.47
65716;BME280;63484;52.054;8.518;2023-04-04T21:13:53;101580.63;;;5.27;50.45
65716;BME280;63484;52.054;8.518;2023-04-04T21:18:56;101572.13;;;5.19;50.67
65716;BME280;63484;52.054;8.518;2023-04-04T21:23:59;101570.63;;;5.10;51.23
65716;BME280;63484;52.054;8.518;2023-04-04T21:29:03;101571.00;;;4.95;52.64
65716;BME280;63484;52.054;8.518;2023-04-04T21:34:11;101572.38;;;4.73;55.14
65716;BME280;63484;52.054;8.518;2023-04-04T21:39:15;101572.00;;;4.50;56.26
65716;BME280;63484;52.054;8.518;2023-04-04T21:44:23;101570.69;;;4.31;57.66
65716;BME280;63484;52.054;8.518;2023-04-04T21:49:25;101567.59;;;4.12;58.77
65716;BME280;63484;52.054;8.518;2023-04-04T21:54:29;101562.72;;;3.96;59.22
65716;BME280;63484;52.054;8.518;2023-04-04T21:59:32;101557.72;;;3.85;59.47
65716;BME280;63484;52.054;8.518;2023-04-04T22:04:34;101565.91;;;3.64;59.92
65716;BME280;63484;52.054;8.518;2023-04-04T22:09:35;101559.34;;;3.45;60.99
65716;BME280;63484;52.054;8.518;2023-04-04T22:14:41;101550.22;;;3.20;61.47
65716;BME280;63484;52.054;8.518;2023-04-04T22:19:43;101542.69;;;3.04;62.40
65716;BME280;63484;52.054;8.518;2023-04-04T22:24:46;101547.34;;;2.83;62.57
65716;BME280;63484;52.054;8.518;2023-04-04T22:29:51;101546.75;;;2.65;64.01
65716;BME280;63484;52.054;8.518;2023-04-04T22:34:53;101534.88;;;2.49;65.44
65716;BME280;63484;52.054;8.518;2023-04-04T22:39:54;101536.00;;;2.30;66.37
65716;BME280;63484;52.054;8.518;2023-04-04T22:44:58;101534.38;;;2.21;68.14
65716;BME280;63484;52.054;8.518;2023-04-04T22:50:02;101538.91;;;2.07;68.38
65716;BME280;63484;52.054;8.518;2023-04-04T22:55:05;101538.19;;;1.93;69.57
65716;BME280;63484;52.054;8.518;2023-04-04T23:00:12;101533.97;;;1.85;70.74
65716;BME280;63484;52.054;8.518;2023-04-04T23:05:17;101526.31;;;1.74;71.42
65716;BME280;63484;52.054;8.518;2023-04-04T23:10:19;101538.53;;;1.63;72.14
65716;BME280;63484;52.054;8.518;2023-04-04T23:15:22;101530.84;;;1.56;73.56
65716;BME280;63484;52.054;8.518;2023-04-04T23:20:28;101535.22;;;1.48;74.21
65716;BME280;63484;52.054;8.518;2023-04-04T23:25:31;101528.44;;;1.36;75.10
65716;BME280;63484;52.054;8.518;2023-04-04T23:30:34;101531.09;;;1.27;75.22
65716;BME280;63484;52.054;8.518;2023-04-04T23:35:36;101527.78;;;1.11;75.21
65716;BME280;63484;52.054;8.518;2023-04-04T23:40:37;101524.38;;;1.06;76.68
65716;BME280;63484;52.054;8.518;2023-04-04T23:45:40;101522.75;;;0.95;77.48
65716;BME280;63484;52.054;8.518;2023-04-04T23:50:44;101524.53;;;0.87;78.62
65716;BME280;63484;52.054;8.518;2023-04-04T23:55:46;101523.81;;;0.71;78.77
